Time;durP1;ratioP1;P1;durP2;ratioP2;P2;SDS_P1;SDS_P2;PMS_P1;PMS_P2;Temp;Humidity;BMP_temperature;BMP_pressure;BME280_temperature;BME280_humidity;BME280_pressure;Samples;Min_cycle;Max_cycle;Signal;HPM_P1;HPM_P2
2021/12/14 00:01:37;;;;;;;;;;;;;;;;;;5075174;28;48472;-74
2021/12/14 00:04:03;;;;;;;;;;;;;;;;;;5075710;28;45179;-74
2021/12/14 00:06:30;;;;;;;;;;;;;;;;;;5075934;28;45567;-73
2021/12/14 00:08:58;;;;;;;;;;;;;;;;;;5075944;28;45742;-74
2021/12/14 00:11:35;;;;;;;;;;;;;;;;;;5075969;28;47041;-73
2021/12/14 00:15:02;;;;;;;;;;;;;;;;;;5057719;28;44889;-73
2021/12/14 00:17:03;;;;;;;;;;;;;;;;;;5074730;28;41696;-72
2021/12/14 00:19:29;;;;;;;;;;;;;;;;;;5075655;28;43342;-73
2021/12/14 00:22:02;;;;;;;;;;;;;;;;;;5058829;28;47123;-74
2021/12/14 00:24:29;;;;;;;;;;;;;;;;;;5075507;28;45233;-74
2021/12/14 00:26:55;;;;;;;;;;;;;;;;;;5075302;28;43584;-74
2021/12/14 00:29:24;;;;;;;;;;;;;;;;;;5073612;28;45382;-74
2021/12/14 00:31:50;;;;;;;;;;;;;;;;;;5073218;28;47010;-74
2021/12/14 00:34:23;;;;;;;;;;;;;;;;;;5073033;28;44391;-74
2021/12/14 00:36:52;;;;;;;;;;;;;;;;;;5071736;28;44029;-75
2021/12/14 00:39:21;;;;;;;;;;;;;;;;;;5072225;28;43937;-74
2021/12/14 00:41:48;;;;;;;;;;;;;;;;;;5055126;28;48990;-74
2021/12/14 00:44:14;;;;;;;;;;;;;;;;;;5073222;28;46276;-74
2021/12/14 00:46:41;;;;;;;;;;;;;;;;;;5074071;28;42660;-74
2021/12/14 00:49:07;;;;;;;;;;;;;;;;;;5056575;28;44232;-74
2021/12/14 00:51:33;;;;;;;;;;;;;;;;;;5075772;28;49696;-74
2021/12/14 00:54:00;;;;;;;;;;;;;;;;;;5075826;28;46054;-75
2021/12/14 00:56:26;;;;;;;;;;;;;;;;;;5074651;28;45726;-74
2021/12/14 00:58:52;;;;;;;;;;;;;;;;;;5057696;28;42947;-74
2021/12/14 01:01:19;;;;;;;;;;;;;;;;;;5074554;28;47574;-74
2021/12/14 01:03:45;;;;;;;;;;;;;;;;;;5075244;28;48847;-74
2021/12/14 01:06:11;;;;;;;;;;;;;;;;;;5057823;28;42391;-74
2021/12/14 01:08:39;;;;;;;;;;;;;;;;;;5075312;28;45069;-74
2021/12/14 01:11:14;;;;;;;;;;;;;;;;;;5074647;28;48042;-74
2021/12/14 01:13:49;;;;;;;;;;;;;;;;;;5074956;28;45539;-74
2021/12/14 01:19:13;;;;;;;;;;;;;;;;;;5074481;28;46372;-75
2021/12/14 01:22:00;;;;;;;;;;;;;;;;;;5073892;28;48415;-75
2021/12/14 01:24:59;;;;;;;;;;;;;;;;;;5072435;28;45558;-74
2021/12/14 01:27:21;;;;;;;;;;;;;;;;;;5072662;28;44663;-74
2021/12/14 01:29:49;;;;;;;;;;;;;;;;;;5072686;28;43937;-75
2021/12/14 01:32:16;;;;;;;;;;;;;;;;;;5072298;28;47011;-74
2021/12/14 01:34:42;;;;;;;;;;;;;;;;;;5072417;28;43905;-74
2021/12/14 01:37:09;;;;;;;;;;;;;;;;;;5073974;28;43877;-74
2021/12/14 01:42:02;;;;;;;;;;;;;;;;;;5073765;28;48202;-75
2021/12/14 01:44:28;;;;;;;;;;;;;;;;;;5073074;28;47097;-74
2021/12/14 01:46:55;;;;;;;;;;;;;;;;;;5055866;28;44539;-74
2021/12/14 01:49:22;;;;;;;;;;;;;;;;;;5074392;28;45971;-75
2021/12/14 01:51:48;;;;;;;;;;;;;;;;;;5074041;28;48266;-74
2021/12/14 01:54:14;;;;;;;;;;;;;;;;;;5074507;28;47591;-75
2021/12/14 01:56:41;;;;;;;;;;;;;;;;;;5073641;28;44845;-74
2021/12/14 01:59:07;;;;;;;;;;;;;;;;;;5074869;28;43905;-74
2021/12/14 02:01:54;;;;;;;;;;;;;;;;;;5074648;28;48065;-74
2021/12/14 02:04:20;;;;;;;;;;;;;;;;;;5074207;28;47667;-75
2021/12/14 02:06:46;;;;;;;;;;;;;;;;;;5055372;28;43527;-74
2021/12/14 02:09:12;;;;;;;;;;;;;;;;;;5057444;28;46191;-75
2021/12/14 02:11:39;;;;;;;;;;;;;;;;;;5074871;28;46544;-74
2021/12/14 02:14:05;;;;;;;;;;;;;;;;;;5075121;28;47404;-75
2021/12/14 02:16:31;;;;;;;;;;;;;;;;;;5074134;28;43590;-75
2021/12/14 02:18:58;;;;;;;;;;;;;;;;;;5074299;28;45751;-75
2021/12/14 02:21:24;;;;;;;;;;;;;;;;;;5073676;28;47210;-74
2021/12/14 02:23:50;;;;;;;;;;;;;;;;;;5073710;28;46722;-75
2021/12/14 02:26:16;;;;;;;;;;;;;;;;;;5056432;28;43655;-75
2021/12/14 02:28:43;;;;;;;;;;;;;;;;;;5073672;28;46535;-74
2021/12/14 02:31:09;;;;;;;;;;;;;;;;;;5074102;28;47101;-72
2021/12/14 02:33:36;;;;;;;;;;;;;;;;;;5073686;28;46439;-73
2021/12/14 02:36:02;;;;;;;;;;;;;;;;;;5074175;28;44791;-73
2021/12/14 02:38:28;;;;;;;;;;;;;;;;;;5073351;28;44991;-74
2021/12/14 02:40:56;;;;;;;;;;;;;;;;;;5055625;28;48144;-73
2021/12/14 02:43:23;;;;;;;;;;;;;;;;;;5074207;28;46331;-74
2021/12/14 02:45:49;;;;;;;;;;;;;;;;;;5073322;28;42990;-73
2021/12/14 02:48:15;;;;;;;;;;;;;;;;;;5055803;28;43645;-73
2021/12/14 02:50:43;;;;;;;;;;;;;;;;;;5073393;28;48119;-74
2021/12/14 02:53:09;;;;;;;;;;;;;;;;;;5055162;28;47833;-74
2021/12/14 02:55:36;;;;;;;;;;;;;;;;;;5072823;28;44909;-74
2021/12/14 02:58:07;;;;;;;;;;;;;;;;;;5073240;28;44118;-74
2021/12/14 03:00:34;;;;;;;;;;;;;;;;;;5072251;28;48190;-74
2021/12/14 03:03:00;;;;;;;;;;;;;;;;;;5055206;28;47258;-72
2021/12/14 03:05:27;;;;;;;;;;;;;;;;;;5073064;28;42526;-74
2021/12/14 03:07:53;;;;;;;;;;;;;;;;;;5056073;28;43991;-73
2021/12/14 03:12:58;;;;;;;;;;;;;;;;;;5071992;28;46405;-72
2021/12/14 03:15:24;;;;;;;;;;;;;;;;;;5073539;28;40566;-73
2021/12/14 03:17:50;;;;;;;;;;;;;;;;;;5072145;28;45622;-73
2021/12/14 03:20:20;;;;;;;;;;;;;;;;;;5073462;28;48029;-73
2021/12/14 03:22:46;;;;;;;;;;;;;;;;;;5072974;28;47282;-73
2021/12/14 03:25:18;;;;;;;;;;;;;;;;;;5072688;28;43530;-74
2021/12/14 03:27:44;;;;;;;;;;;;;;;;;;5073347;28;45098;-74
2021/12/14 03:30:11;;;;;;;;;;;;;;;;;;5072965;28;48362;-73
2021/12/14 03:32:37;;;;;;;;;;;;;;;;;;5073241;28;46418;-73
2021/12/14 03:35:03;;;;;;;;;;;;;;;;;;5073138;28;42763;-73
2021/12/14 03:37:29;;;;;;;;;;;;;;;;;;5073297;28;44079;-73
2021/12/14 03:39:56;;;;;;;;;;;;;;;;;;5073689;28;47737;-73
2021/12/14 03:42:24;;;;;;;;;;;;;;;;;;5073031;28;45059;-73
2021/12/14 03:44:50;;;;;;;;;;;;;;;;;;5055516;28;43789;-73
2021/12/14 03:47:16;;;;;;;;;;;;;;;;;;5073511;28;45198;-74
2021/12/14 03:49:43;;;;;;;;;;;;;;;;;;5072472;28;47745;-73
2021/12/14 03:52:09;;;;;;;;;;;;;;;;;;5073695;28;47266;-73
2021/12/14 03:54:35;;;;;;;;;;;;;;;;;;5055496;28;43623;-73
2021/12/14 03:57:01;;;;;;;;;;;;;;;;;;5072553;28;46067;-74
2021/12/14 03:59:28;;;;;;;;;;;;;;;;;;5055431;28;45857;-74
2021/12/14 04:01:54;;;;;;;;;;;;;;;;;;5054619;28;47728;-73
2021/12/14 04:04:20;;;;;;;;;;;;;;;;;;5055132;28;43996;-74
2021/12/14 04:06:47;;;;;;;;;;;;;;;;;;5071486;28;46442;-73
2021/12/14 04:09:13;;;;;;;;;;;;;;;;;;5071669;28;45681;-73
2021/12/14 04:11:42;;;;;;;;;;;;;;;;;;5055875;28;47741;-73
2021/12/14 04:14:09;;;;;;;;;;;;;;;;;;5051151;28;44668;-73
2021/12/14 04:16:35;;;;;;;;;;;;;;;;;;5051457;28;42881;-73
2021/12/14 04:19:04;;;;;;;;;;;;;;;;;;5051990;28;46455;-73
2021/12/14 04:21:30;;;;;;;;;;;;;;;;;;5067122;28;47978;-73
2021/12/14 04:23:57;;;;;;;;;;;;;;;;;;5052748;28;44999;-74
2021/12/14 04:26:23;;;;;;;;;;;;;;;;;;5068017;28;43171;-73
2021/12/14 04:28:49;;;;;;;;;;;;;;;;;;5051476;28;49062;-74
2021/12/14 04:31:16;;;;;;;;;;;;;;;;;;5054066;28;44183;-74
2021/12/14 04:33:42;;;;;;;;;;;;;;;;;;5070569;28;43198;-74
2021/12/14 04:36:10;;;;;;;;;;;;;;;;;;5054786;28;46102;-73
2021/12/14 04:38:45;;;;;;;;;;;;;;;;;;5054113;28;48166;-73
2021/12/14 04:52:01;;;;;;;;;;;;;;;;;;5055349;28;46455;-74
2021/12/14 04:54:27;;;;;;;;;;;;;;;;;;5056221;28;43608;-74
2021/12/14 04:56:54;;;;;;;;;;;;;;;;;;5087459;28;44105;-75
2021/12/14 04:59:20;;;;;;;;;;;;;;;;;;5053933;28;46944;-74
2021/12/14 05:01:46;;;;;;;;;;;;;;;;;;5057706;28;45081;-74
2021/12/14 05:04:15;;;;;;;;;;;;;;;;;;5052157;28;44759;-75
2021/12/14 05:06:47;;;;;;;;;;;;;;;;;;5053967;28;45121;-74
2021/12/14 05:09:24;;;;;;;;;;;;;;;;;;5053955;28;47278;-75
2021/12/14 05:11:50;;;;;;;;;;;;;;;;;;5054383;28;47452;-74
2021/12/14 05:14:17;;;;;;;;;;;;;;;;;;5086639;28;43192;-75
2021/12/14 05:16:43;;;;;;;;;;;;;;;;;;5053895;28;46039;-75
2021/12/14 05:19:26;;;;;;;;;;;;;;;;;;5054608;28;48186;-74
2021/12/14 05:21:53;;;;;;;;;;;;;;;;;;5068784;28;46868;-74
2021/12/14 05:24:22;;;;;;;;;;;;;;;;;;5075640;28;44566;-74
2021/12/14 05:26:49;;;;;;;;;;;;;;;;;;5054751;28;46069;-75
2021/12/14 05:29:15;;;;;;;;;;;;;;;;;;5053928;28;45690;-74
2021/12/14 05:31:42;;;;;;;;;;;;;;;;;;5053731;28;47265;-74
2021/12/14 05:34:08;;;;;;;;;;;;;;;;;;5085589;28;43685;-75
2021/12/14 05:36:34;;;;;;;;;;;;;;;;;;5084926;28;45563;-75
2021/12/14 05:39:24;;;;;;;;;;;;;;;;;;5053203;28;48495;-74
2021/12/14 05:44:35;;;;;;;;;;;;;;;;;;5051887;28;42975;-74
2021/12/14 05:47:05;;;;;;;;;;;;;;;;;;5052446;28;44215;-74
2021/12/14 05:49:32;;;;;;;;;;;;;;;;;;5053482;28;49097;-74
2021/12/14 05:51:58;;;;;;;;;;;;;;;;;;5052627;28;48063;-74
2021/12/14 05:54:25;;;;;;;;;;;;;;;;;;5053131;28;45826;-74
2021/12/14 05:56:51;;;;;;;;;;;;;;;;;;5053422;28;44945;-74
2021/12/14 05:59:18;;;;;;;;;;;;;;;;;;5053362;28;47027;-74
2021/12/14 06:01:44;;;;;;;;;;;;;;;;;;5085064;28;45397;-74
2021/12/14 06:04:10;;;;;;;;;;;;;;;;;;5085627;28;44659;-74
2021/12/14 06:06:41;;;;;;;;;;;;;;;;;;5053447;28;45701;-74
2021/12/14 06:09:09;;;;;;;;;;;;;;;;;;5053255;28;46364;-74
2021/12/14 06:11:35;;;;;;;;;;;;;;;;;;5096667;28;45104;-74
2021/12/14 06:14:05;;;;;;;;;;;;;;;;;;5072371;28;43550;-74
2021/12/14 06:16:31;;;;;;;;;;;;;;;;;;5071949;28;46227;-74
2021/12/14 06:19:00;;;;;;;;;;;;;;;;;;5072409;28;46267;-74
2021/12/14 06:21:30;;;;;;;;;;;;;;;;;;5072243;28;46326;-74
2021/12/14 06:23:56;;;;;;;;;;;;;;;;;;5071863;28;45026;-74
2021/12/14 06:26:22;;;;;;;;;;;;;;;;;;5072411;28;45946;-74
2021/12/14 06:28:49;;;;;;;;;;;;;;;;;;5073333;28;48613;-74
2021/12/14 06:31:19;;;;;;;;;;;;;;;;;;5053235;28;47767;-73
2021/12/14 06:33:52;;;;;;;;;;;;;;;;;;5053296;28;44997;-73
2021/12/14 06:36:19;;;;;;;;;;;;;;;;;;5084532;28;44845;-73
2021/12/14 06:38:47;;;;;;;;;;;;;;;;;;5086051;28;48342;-74
2021/12/14 06:41:32;;;;;;;;;;;;;;;;;;5054452;28;20127;-73
2021/12/14 06:44:16;;;;;;;;;;;;;;;;;;5053783;28;19925;-74
2021/12/14 06:46:43;;;;;;;;;;;;;;;;;;5050896;28;45213;-74
2021/12/14 06:49:12;;;;;;;;;;;;;;;;;;5068387;28;46730;-73
2021/12/14 06:51:39;;;;;;;;;;;;;;;;;;5071428;28;46220;-73
2021/12/14 06:54:05;;;;;;;;;;;;;;;;;;5070901;28;43164;-73
2021/12/14 06:56:34;;;;;;;;;;;;;;;;;;5070239;28;42569;-74
2021/12/14 06:59:01;;;;;;;;;;;;;;;;;;5066907;28;48562;-74
2021/12/14 07:01:29;;;;;;;;;;;;;;;;;;5068476;28;47526;-73
2021/12/14 07:03:56;;;;;;;;;;;;;;;;;;5070863;28;45693;-74
2021/12/14 07:06:22;;;;;;;;;;;;;;;;;;5067577;28;43387;-69
2021/12/14 07:08:49;;;;;;;;;;;;;;;;;;5065639;28;46055;-69
2021/12/14 07:11:16;;;;;;;;;;;;;;;;;;5067623;28;45701;-69
2021/12/14 07:13:44;;;;;;;;;;;;;;;;;;5068208;28;44674;-69
2021/12/14 07:16:19;;;;;;;;;;;;;;;;;;5068749;28;45793;-69
2021/12/14 07:18:49;;;;;;;;;;;;;;;;;;5090759;28;49364;-69
2021/12/14 07:21:22;;;;;;;;;;;;;;;;;;5081987;28;45080;-69
2021/12/14 07:23:50;;;;;;;;;;;;;;;;;;5073850;28;44393;-69
2021/12/14 07:26:26;;;;;;;;;;;;;;;;;;5085415;28;45597;-69
2021/12/14 07:28:54;;;;;;;;;;;;;;;;;;5102988;28;45872;-70
2021/12/14 07:31:35;;;;;;;;;;;;;;;;;;5106355;28;44896;-70
2021/12/14 07:34:01;;;;;;;;;;;;;;;;;;5092655;28;45889;-70
2021/12/14 07:36:28;;;;;;;;;;;;;;;;;;5088620;28;44110;-70
2021/12/14 07:38:58;;;;;;;;;;;;;;;;;;5084099;28;49030;-69
2021/12/14 07:41:30;;;;;;;;;;;;;;;;;;5073220;28;45493;-70
2021/12/14 07:43:56;;;;;;;;;;;;;;;;;;5093316;28;42986;-70
2021/12/14 07:46:24;;;;;;;;;;;;;;;;;;5100756;28;45399;-69
2021/12/14 07:48:54;;;;;;;;;;;;;;;;;;5072793;28;48295;-69
2021/12/14 07:51:24;;;;;;;;;;;;;;;;;;5073902;28;44933;-69
2021/12/14 07:53:55;;;;;;;;;;;;;;;;;;5073087;28;42341;-70
2021/12/14 07:56:23;;;;;;;;;;;;;;;;;;5092131;28;44113;-69
2021/12/14 07:58:59;;;;;;;;;;;;;;;;;;5082636;28;46248;-69
2021/12/14 08:01:26;;;;;;;;;;;;;;;;;;5096385;27;45421;-70
2021/12/14 08:03:52;;;;;;;;;;;;;;;;;;5071386;28;43674;-69
2021/12/14 08:06:22;;;;;;;;;;;;;;;;;;5085219;28;43220;-70
2021/12/14 08:08:56;;;;;;;;;;;;;;;;;;5094111;28;47270;-69
2021/12/14 08:11:46;;;;;;;;;;;;;;;;;;5084216;28;44793;-70
2021/12/14 08:14:14;;;;;;;;;;;;;;;;;;5072775;28;42664;-70
2021/12/14 08:16:42;;;;;;;;;;;;;;;;;;5084440;28;45042;-69
2021/12/14 08:19:10;;;;;;;;;;;;;;;;;;5069879;28;44350;-69
2021/12/14 08:21:41;;;;;;;;;;;;;;;;;;5104188;28;46797;-70
2021/12/14 08:24:13;;;;;;;;;;;;;;;;;;5081380;28;42652;-70
2021/12/14 08:26:40;;;;;;;;;;;;;;;;;;5083599;28;44928;-70
2021/12/14 08:29:08;;;;;;;;;;;;;;;;;;5093560;28;47185;-70
2021/12/14 08:31:34;;;;;;;;;;;;;;;;;;5099685;28;43411;-70
2021/12/14 08:34:01;;;;;;;;;;;;;;;;;;5082773;28;44004;-70
2021/12/14 08:36:28;;;;;;;;;;;;;;;;;;5082629;28;43538;-70
2021/12/14 08:38:55;;;;;;;;;;;;;;;;;;5100459;28;47364;-70
2021/12/14 08:41:24;;;;;;;;;;;;;;;;;;5101640;28;46327;-69
2021/12/14 08:43:52;;;;;;;;;;;;;;;;;;5084464;28;41705;-69
2021/12/14 08:46:20;;;;;;;;;;;;;;;;;;5075850;28;45231;-69
2021/12/14 08:48:46;;;;;;;;;;;;;;;;;;5075224;28;47033;-69
2021/12/14 08:51:14;;;;;;;;;;;;;;;;;;5085214;28;47487;-69
2021/12/14 08:53:43;;;;;;;;;;;;;;;;;;5100448;28;43497;-69
2021/12/14 08:56:12;;;;;;;;;;;;;;;;;;5075689;28;45517;-69
2021/12/14 08:58:38;;;;;;;;;;;;;;;;;;5086685;28;45285;-69
2021/12/14 09:01:07;;;;;;;;;;;;;;;;;;5104587;28;45550;-69
2021/12/14 09:03:34;;;;;;;;;;;;;;;;;;5072593;28;43670;-69
2021/12/14 09:06:00;;;;;;;;;;;;;;;;;;5081563;28;46136;-69
2021/12/14 09:08:27;;;;;;;;;;;;;;;;;;5092264;28;45056;-69
2021/12/14 09:10:56;;;;;;;;;;;;;;;;;;5072839;28;44181;-69
2021/12/14 09:13:22;;;;;;;;;;;;;;;;;;5075089;28;44512;-70
2021/12/14 09:15:48;;;;;;;;;;;;;;;;;;5087925;28;46091;-69
2021/12/14 09:18:18;;;;;;;;;;;;;;;;;;5071706;28;44923;-69
2021/12/14 09:20:45;;;;;;;;;;;;;;;;;;5075028;28;47597;-69
2021/12/14 09:23:14;;;;;;;;;;;;;;;;;;5093020;28;46747;-70
2021/12/14 09:25:45;;;;;;;;;;;;;;;;;;5089152;28;43424;-69
2021/12/14 09:28:20;;;;;;;;;;;;;;;;;;5090897;28;45925;-69
2021/12/14 09:30:59;;;;;;;;;;;;;;;;;;5089615;28;43468;-69
2021/12/14 09:33:26;;;;;;;;;;;;;;;;;;5093246;28;45058;-69
2021/12/14 09:36:01;;;;;;;;;;;;;;;;;;5087014;28;45035;-67
2021/12/14 09:38:48;;;;;;;;;;;;;;;;;;5082432;28;19955;-68
2021/12/14 09:41:18;;;;;;;;;;;;;;;;;;5081688;28;45496;-68
2021/12/14 09:43:48;;;;;;;;;;;;;;;;;;5105757;28;42427;-69
2021/12/14 09:46:20;;;;;;;;;;;;;;;;;;5082056;28;44542;-68
2021/12/14 09:48:47;;;;;;;;;;;;;;;;;;5091728;28;45572;-68
2021/12/14 09:51:13;;;;;;;;;;;;;;;;;;5084959;28;47223;-68
2021/12/14 09:53:42;;;;;;;;;;;;;;;;;;5075290;28;43601;-69
2021/12/14 09:56:22;;;;;;;;;;;;;;;;;;5088211;28;44863;-69
2021/12/14 09:58:50;;;;;;;;;;;;;;;;;;5086903;28;47116;-69
2021/12/14 10:01:18;;;;;;;;;;;;;;;;;;5087390;28;46884;-69
2021/12/14 10:03:46;;;;;;;;;;;;;;;;;;5072945;28;43696;-69
2021/12/14 10:06:14;;;;;;;;;;;;;;;;;;5088797;28;42901;-69
2021/12/14 10:08:42;;;;;;;;;;;;;;;;;;5088208;28;47393;-69
2021/12/14 10:11:09;;;;;;;;;;;;;;;;;;5089088;28;47361;-70
2021/12/14 10:13:43;;;;;;;;;;;;;;;;;;5089497;28;44470;-69
2021/12/14 10:16:20;;;;;;;;;;;;;;;;;;5091788;28;46079;-69
2021/12/14 10:18:52;;;;;;;;;;;;;;;;;;5096771;28;46083;-69
2021/12/14 10:21:20;;;;;;;;;;;;;;;;;;5068737;28;46400;-70
2021/12/14 10:23:46;;;;;;;;;;;;;;;;;;5061381;28;44683;-69
2021/12/14 10:26:14;;;;;;;;;;;;;;;;;;5068818;28;46334;-71
2021/12/14 10:28:45;;;;;;;;;;;;;;;;;;5066345;28;45551;-69
2021/12/14 10:31:18;;;;;;;;;;;;;;;;;;5050533;28;47376;-69
2021/12/14 10:33:46;;;;;;;;;;;;;;;;;;5052269;28;45899;-69
2021/12/14 10:36:35;;;;;;;;;;;;;;;;;;5050985;28;46616;-69
2021/12/14 10:44:30;;;;;;;;;;;;;;;;;;5063187;28;42258;-69
2021/12/14 10:46:58;;;;;;;;;;;;;;;;;;5063172;28;43781;-70
2021/12/14 10:49:26;;;;;;;;;;;;;;;;;;5051856;28;47552;-68
2021/12/14 10:52:06;;;;;;;;;;;;;;;;;;5054754;28;45562;-68
2021/12/14 10:54:34;;;;;;;;;;;;;;;;;;5064433;28;44654;-69
2021/12/14 10:57:03;;;;;;;;;;;;;;;;;;5071700;28;43459;-68
2021/12/14 10:59:30;;;;;;;;;;;;;;;;;;5069565;28;46881;-69
2021/12/14 11:01:58;;;;;;;;;;;;;;;;;;5066672;28;45563;-69
2021/12/14 11:04:27;;;;;;;;;;;;;;;;;;5069853;28;45142;-69
2021/12/14 11:06:57;;;;;;;;;;;;;;;;;;5069702;28;44935;-70
2021/12/14 11:12:09;;;;;;;;;;;;;;;;;;5066445;28;46080;-68
2021/12/14 11:14:37;;;;;;;;;;;;;;;;;;5067386;28;43865;-68
2021/12/14 11:20:18;;;;;;;;;;;;;;;;;;5090506;28;19973;-68
2021/12/14 11:22:44;;;;;;;;;;;;;;;;;;5062574;28;45864;-68
2021/12/14 11:25:21;;;;;;;;;;;;;;;;;;5072280;28;44688;-69
2021/12/14 11:27:47;;;;;;;;;;;;;;;;;;5097935;28;46016;-69
2021/12/14 11:30:18;;;;;;;;;;;;;;;;;;5088074;28;44892;-69
2021/12/14 11:32:48;;;;;;;;;;;;;;;;;;5093256;28;47452;-69
2021/12/14 11:35:14;;;;;;;;;;;;;;;;;;5091758;28;43107;-70
2021/12/14 11:37:45;;;;;;;;;;;;;;;;;;5101181;28;46204;-69
2021/12/14 11:40:12;;;;;;;;;;;;;;;;;;5093526;28;47031;-69
2021/12/14 11:42:42;;;;;;;;;;;;;;;;;;5112144;28;45531;-69
2021/12/14 11:45:09;;;;;;;;;;;;;;;;;;5095350;28;43460;-70
2021/12/14 11:47:43;;;;;;;;;;;;;;;;;;5094907;28;43903;-70
2021/12/14 11:50:15;;;;;;;;;;;;;;;;;;5091357;28;48246;-69
2021/12/14 11:52:50;;;;;;;;;;;;;;;;;;5095515;28;45696;-70
2021/12/14 11:55:34;;;;;;;;;;;;;;;;;;5060516;28;45272;-69
2021/12/14 11:58:02;;;;;;;;;;;;;;;;;;5091711;28;43916;-69
2021/12/14 12:00:30;;;;;;;;;;;;;;;;;;5070125;28;47023;-69
2021/12/14 12:02:59;;;;;;;;;;;;;;;;;;5082464;28;45972;-69
2021/12/14 12:05:35;;;;;;;;;;;;;;;;;;5104662;28;42597;-69
2021/12/14 12:10:47;;;;;;;;;;;;;;;;;;5086540;28;47034;-70
2021/12/14 12:13:17;;;;;;;;;;;;;;;;;;5083004;28;46897;-69
2021/12/14 12:15:46;;;;;;;;;;;;;;;;;;5093623;28;43608;-69
2021/12/14 12:18:14;;;;;;;;;;;;;;;;;;5095054;28;43667;-70
2021/12/14 12:20:46;;;;;;;;;;;;;;;;;;5076702;28;46524;-69
2021/12/14 12:23:17;;;;;;;;;;;;;;;;;;5093194;28;46202;-69
2021/12/14 12:25:47;;;;;;;;;;;;;;;;;;5094062;28;45312;-70
2021/12/14 12:28:13;;;;;;;;;;;;;;;;;;5085300;28;45182;-69
2021/12/14 12:30:45;;;;;;;;;;;;;;;;;;5082757;28;47053;-69
2021/12/14 12:33:11;;;;;;;;;;;;;;;;;;5082353;28;47742;-69
2021/12/14 12:35:38;;;;;;;;;;;;;;;;;;5081868;28;45625;-69
2021/12/14 12:38:05;;;;;;;;;;;;;;;;;;5111163;28;46000;-68
2021/12/14 12:40:32;;;;;;;;;;;;;;;;;;5094282;28;48044;-69
2021/12/14 12:42:58;;;;;;;;;;;;;;;;;;5095577;28;47320;-69
2021/12/14 12:45:27;;;;;;;;;;;;;;;;;;5094161;28;44636;-69
2021/12/14 12:47:55;;;;;;;;;;;;;;;;;;5090336;28;43305;-69
2021/12/14 12:50:23;;;;;;;;;;;;;;;;;;5073104;28;45848;-70
2021/12/14 12:52:49;;;;;;;;;;;;;;;;;;5072871;28;46962;-69
2021/12/14 12:55:17;;;;;;;;;;;;;;;;;;5086453;28;42476;-69
2021/12/14 12:57:44;;;;;;;;;;;;;;;;;;5092755;28;45932;-70
2021/12/14 13:00:11;;;;;;;;;;;;;;;;;;5089714;28;45533;-69
2021/12/14 13:02:40;;;;;;;;;;;;;;;;;;5088155;28;44571;-69
2021/12/14 13:05:07;;;;;;;;;;;;;;;;;;5072453;28;42779;-72
2021/12/14 13:07:34;;;;;;;;;;;;;;;;;;5082830;28;42579;-70
2021/12/14 13:10:02;;;;;;;;;;;;;;;;;;5090823;28;44969;-70
2021/12/14 13:12:30;;;;;;;;;;;;;;;;;;5090096;28;45553;-69
2021/12/14 13:15:00;;;;;;;;;;;;;;;;;;5070025;28;42684;-69
2021/12/14 13:17:26;;;;;;;;;;;;;;;;;;5088633;28;46068;-70
2021/12/14 13:19:54;;;;;;;;;;;;;;;;;;5091312;28;48026;-69
2021/12/14 13:22:22;;;;;;;;;;;;;;;;;;5092531;28;47401;-69
2021/12/14 13:24:51;;;;;;;;;;;;;;;;;;5088887;28;44652;-70
2021/12/14 13:27:21;;;;;;;;;;;;;;;;;;5108742;28;45401;-69
2021/12/14 13:29:48;;;;;;;;;;;;;;;;;;5093343;28;46736;-69
2021/12/14 13:32:15;;;;;;;;;;;;;;;;;;5092605;28;46250;-69
2021/12/14 13:34:42;;;;;;;;;;;;;;;;;;5057782;28;44669;-69
2021/12/14 13:37:08;;;;;;;;;;;;;;;;;;5089418;28;44845;-68
2021/12/14 13:39:35;;;;;;;;;;;;;;;;;;5070244;28;45774;-69
2021/12/14 13:42:01;;;;;;;;;;;;;;;;;;5073182;28;46337;-69
2021/12/14 13:44:28;;;;;;;;;;;;;;;;;;5073058;28;42409;-69
2021/12/14 13:46:57;;;;;;;;;;;;;;;;;;5087525;28;44172;-69
2021/12/14 13:49:49;;;;;;;;;;;;;;;;;;5072044;28;49187;-70
2021/12/14 13:52:28;;;;;;;;;;;;;;;;;;5084595;28;46610;-68
2021/12/14 13:55:19;;;;;;;;;;;;;;;;;;5091342;28;19931;-69
2021/12/14 13:58:19;;;;;;;;;;;;;;;;;;5092687;28;43233;-69
2021/12/14 14:00:45;;;;;;;;;;;;;;;;;;5093447;28;45859;-69
2021/12/14 14:03:12;;;;;;;;;;;;;;;;;;5090161;28;47535;-69
2021/12/14 14:05:42;;;;;;;;;;;;;;;;;;5088015;27;44392;-69
2021/12/14 14:08:30;;;;;;;;;;;;;;;;;;5089259;28;20348;-69
2021/12/14 14:11:10;;;;;;;;;;;;;;;;;;5091384;28;45968;-70
2021/12/14 14:13:50;;;;;;;;;;;;;;;;;;5082601;28;46887;-69
2021/12/14 14:16:21;;;;;;;;;;;;;;;;;;5087222;28;44609;-70
2021/12/14 14:18:50;;;;;;;;;;;;;;;;;;5089733;28;45292;-69
2021/12/14 14:21:19;;;;;;;;;;;;;;;;;;5067976;28;48331;-69
2021/12/14 14:23:46;;;;;;;;;;;;;;;;;;5100314;28;45420;-69
2021/12/14 14:26:24;;;;;;;;;;;;;;;;;;5088032;28;42665;-70
2021/12/14 14:29:19;;;;;;;;;;;;;;;;;;5067625;28;45020;-70
2021/12/14 14:31:51;;;;;;;;;;;;;;;;;;5090434;28;48615;-70
2021/12/14 14:34:17;;;;;;;;;;;;;;;;;;5086190;28;47544;-70
2021/12/14 14:36:45;;;;;;;;;;;;;;;;;;5075785;28;44669;-70
2021/12/14 14:39:11;;;;;;;;;;;;;;;;;;5091833;28;45064;-70
2021/12/14 14:41:39;;;;;;;;;;;;;;;;;;5073580;28;48077;-70
2021/12/14 14:44:06;;;;;;;;;;;;;;;;;;5092239;28;47526;-70
2021/12/14 14:46:54;;;;;;;;;;;;;;;;;;5079188;28;43047;-70
2021/12/14 14:49:20;;;;;;;;;;;;;;;;;;5090144;28;46495;-70
2021/12/14 14:51:47;;;;;;;;;;;;;;;;;;5085359;28;44560;-73
2021/12/14 14:54:13;;;;;;;;;;;;;;;;;;5087596;28;46257;-70
2021/12/14 14:56:41;;;;;;;;;;;;;;;;;;5089765;28;43852;-70
2021/12/14 14:59:26;;;;;;;;;;;;;;;;;;5087575;28;45479;-70
2021/12/14 15:01:56;;;;;;;;;;;;;;;;;;5087209;28;47215;-70
2021/12/14 15:04:23;;;;;;;;;;;;;;;;;;5111284;28;46654;-70
2021/12/14 15:06:50;;;;;;;;;;;;;;;;;;5095841;28;45612;-70
2021/12/14 15:09:20;;;;;;;;;;;;;;;;;;5107382;28;43892;-70
2021/12/14 15:12:00;;;;;;;;;;;;;;;;;;5092225;28;20043;-70
2021/12/14 15:14:28;;;;;;;;;;;;;;;;;;5083989;28;45103;-70
2021/12/14 15:16:57;;;;;;;;;;;;;;;;;;5088331;28;43604;-70
2021/12/14 15:19:26;;;;;;;;;;;;;;;;;;5077561;28;45029;-70
2021/12/14 15:21:53;;;;;;;;;;;;;;;;;;5085359;28;48183;-70
2021/12/14 15:24:23;;;;;;;;;;;;;;;;;;5087371;28;43863;-70
2021/12/14 15:26:49;;;;;;;;;;;;;;;;;;5092622;28;43708;-70
2021/12/14 15:29:16;;;;;;;;;;;;;;;;;;5090003;28;43372;-69
2021/12/14 15:31:47;;;;;;;;;;;;;;;;;;5091197;28;48143;-70
2021/12/14 15:34:15;;;;;;;;;;;;;;;;;;5087774;28;47627;-69
2021/12/14 15:36:41;;;;;;;;;;;;;;;;;;5086900;28;43705;-70
2021/12/14 15:39:07;;;;;;;;;;;;;;;;;;5090146;28;44906;-70
2021/12/14 15:41:34;;;;;;;;;;;;;;;;;;5088577;28;46983;-70
2021/12/14 15:44:00;;;;;;;;;;;;;;;;;;5091264;28;45195;-70
2021/12/14 15:46:27;;;;;;;;;;;;;;;;;;5091131;28;43129;-70
2021/12/14 15:48:57;;;;;;;;;;;;;;;;;;5090499;28;43878;-71
2021/12/14 15:51:23;;;;;;;;;;;;;;;;;;5090258;28;45265;-70
2021/12/14 15:53:51;;;;;;;;;;;;;;;;;;5106485;28;46273;-71
2021/12/14 15:56:20;;;;;;;;;;;;;;;;;;5090757;28;46067;-71
2021/12/14 15:58:47;;;;;;;;;;;;;;;;;;5082642;28;45108;-71
2021/12/14 16:01:14;;;;;;;;;;;;;;;;;;5069047;28;47075;-70
2021/12/14 16:03:40;;;;;;;;;;;;;;;;;;5071280;28;47499;-71
2021/12/14 16:06:07;;;;;;;;;;;;;;;;;;5080753;28;42540;-70
2021/12/14 16:08:38;;;;;;;;;;;;;;;;;;5076135;28;44664;-70
2021/12/14 16:16:30;;;;;;;;;;;;;;;;;;5092107;28;44680;-70
2021/12/14 16:18:57;;;;;;;;;;;;;;;;;;5084605;28;46312;-70
2021/12/14 16:21:27;;;;;;;;;;;;;;;;;;5070366;28;48072;-69
2021/12/14 16:23:53;;;;;;;;;;;;;;;;;;5071129;28;47372;-69
2021/12/14 16:26:19;;;;;;;;;;;;;;;;;;5089373;28;43502;-70
2021/12/14 16:28:47;;;;;;;;;;;;;;;;;;5074770;28;45854;-69
2021/12/14 16:31:14;;;;;;;;;;;;;;;;;;5088998;28;46901;-70
2021/12/14 16:33:43;;;;;;;;;;;;;;;;;;5088772;28;46827;-70
2021/12/14 16:36:11;;;;;;;;;;;;;;;;;;5084151;28;42774;-70
2021/12/14 16:38:38;;;;;;;;;;;;;;;;;;5100698;28;45904;-70
2021/12/14 16:41:04;;;;;;;;;;;;;;;;;;5113590;28;47022;-69
2021/12/14 16:43:31;;;;;;;;;;;;;;;;;;5101969;28;45297;-69
2021/12/14 16:45:57;;;;;;;;;;;;;;;;;;5109945;28;44966;-69
2021/12/14 16:48:23;;;;;;;;;;;;;;;;;;5109299;28;46306;-69
2021/12/14 16:50:53;;;;;;;;;;;;;;;;;;5093258;28;47128;-69
2021/12/14 16:53:22;;;;;;;;;;;;;;;;;;5096062;28;45439;-69
2021/12/14 16:55:50;;;;;;;;;;;;;;;;;;5114352;28;42756;-70
2021/12/14 16:58:17;;;;;;;;;;;;;;;;;;5115793;28;43545;-70
2021/12/14 17:00:43;;;;;;;;;;;;;;;;;;5113419;28;48481;-70
2021/12/14 17:03:10;;;;;;;;;;;;;;;;;;5113870;28;47757;-70
2021/12/14 17:05:36;;;;;;;;;;;;;;;;;;5113690;28;44964;-70
2021/12/14 17:08:02;;;;;;;;;;;;;;;;;;5114688;28;45103;-70
2021/12/14 17:10:33;;;;;;;;;;;;;;;;;;5112808;28;44960;-69
2021/12/14 17:13:09;;;;;;;;;;;;;;;;;;5113220;28;45145;-70
2021/12/14 17:15:39;;;;;;;;;;;;;;;;;;5094577;28;44205;-70
2021/12/14 17:18:06;;;;;;;;;;;;;;;;;;5113896;28;46101;-71
2021/12/14 17:23:18;;;;;;;;;;;;;;;;;;5114519;28;47275;-71
2021/12/14 17:25:44;;;;;;;;;;;;;;;;;;5096947;28;43523;-70
2021/12/14 17:28:11;;;;;;;;;;;;;;;;;;5109562;28;44903;-70
2021/12/14 17:30:41;;;;;;;;;;;;;;;;;;5092763;28;46132;-71
2021/12/14 17:33:08;;;;;;;;;;;;;;;;;;5091974;28;46770;-70
2021/12/14 17:35:35;;;;;;;;;;;;;;;;;;5093196;28;45639;-71
2021/12/14 17:38:03;;;;;;;;;;;;;;;;;;5080286;28;46438;-70
2021/12/14 17:40:30;;;;;;;;;;;;;;;;;;5089344;28;46920;-71
2021/12/14 17:42:56;;;;;;;;;;;;;;;;;;5104598;27;46281;-71